MSC Maria Saveria — 3FLE8 — position and weather

sailwx.info

Track history (hours):
 
Tides and Currents Weather Stations Pressure Air Temp Water Temp Dewpoint Dewpoint Depression Visibility Wind Speed Wind Dir Waves Ship Positions

MSC Maria Saveria

Last reported at 2016-Jun-25 01:33 UTC. Time now 2016-Jun-25 01:50 UTC.
Position N 36°23' W 002°08'.

Length 366 m; draft 13.5 m.

Type: Ship (hazmat cat A). MMSI: 372400000.

Date/timePositionNaut miles runAvg speedWind from/ knotsBaromVisibWave heightAir tempDewpointWater temp
2016-Jun-25 01:33N 36°23' W 002°08'2017.0
2016-Jun-25 00:23N 36°19' W 002°32'14017.9
2016-Jun-24 16:33N 35°57' W 005°23'11115.9
2016-Jun-24 09:33N 36°12' W 007°39'1816.4
2016-Jun-24 08:27N 36°17' W 008°01'2116.7
2016-Jun-24 07:11N 36°22' W 008°26'4616.2
2016-Jun-24 04:21N 36°37' W 009°21'1315.9
2016-Jun-24 03:33N 36°47' W 009°31'2015.0
2016-Jun-24 02:12N 37°07' W 009°28'1717.5
2016-Jun-24 01:13N 37°22' W 009°17'1117.2
2016-Jun-24 00:33N 37°31' W 009°09'1717.0
2016-Jun-23 23:33N 37°45' W 008°56'1211.6
2016-Jun-23 22:31N 37°56' W 008°51'0 0.0
2016-Jun-23 21:31N 37°56' W 008°51'0 0.0
2016-Jun-23 20:28N 37°56' W 008°51'0 0.0
2016-Jun-23 19:31N 37°56' W 008°51'0 0.0
2016-Jun-23 18:31N 37°56' W 008°51'0 0.0
2016-Jun-23 17:31N 37°56' W 008°51'0 0.0
2016-Jun-23 16:31N 37°56' W 008°51'0 0.0
2016-Jun-23 15:31N 37°56' W 008°51'0 0.0
2016-Jun-23 14:31N 37°56' W 008°51'0 0.0
2016-Jun-23 13:31N 37°56' W 008°51'0 0.0
2016-Jun-23 12:31N 37°56' W 008°51'0 0.0
2016-Jun-23 11:28N 37°56' W 008°51'0 0.0
2016-Jun-23 10:31N 37°56' W 008°51'0 0.0
2016-Jun-23 09:31N 37°56' W 008°51'0 0.0
2016-Jun-23 08:31N 37°56' W 008°51'0 0.0
2016-Jun-23 07:31N 37°56' W 008°51'0 0.0
2016-Jun-23 05:31N 37°56' W 008°51'0 0.0
2016-Jun-23 04:31N 37°56' W 008°51'0 0.0
2016-Jun-23 03:31N 37°56' W 008°51'0 0.0
2016-Jun-23 02:31N 37°56' W 008°51'1 0.7
2016-Jun-23 01:33N 37°55' W 008°50'8 8.2
2016-Jun-23 00:33N 37°59' W 008°60'2 1.6
2016-Jun-22 23:33N 38°00' W 009°01'1 1.3
2016-Jun-22 22:33N 38°02' W 009°02'1 1.3
2016-Jun-22 21:33N 38°03' W 009°02'1 1.3
2016-Jun-22 20:33N 38°04' W 009°02'1 1.2
2016-Jun-22 19:34N 38°04' W 009°04'7 6.9
2016-Jun-22 18:33N 37°58' W 008°60'1 1.1
2016-Jun-22 17:33N 37°59' W 009°00'1 1.3
2016-Jun-22 16:30N 37°60' W 009°02'6 5.9
2016-Jun-22 15:33N 38°02' W 009°08'1414.4
2016-Jun-22 14:34N 38°11' W 009°22'1414.2
2016-Jun-22 13:33N 38°18' W 009°38'1514.6
2016-Jun-22 12:33N 38°28' W 009°52'1414.5
2016-Jun-22 11:33N 38°38' W 010°05'1414.4
2016-Jun-22 10:33N 38°52' W 010°07'1514.7
2016-Jun-22 09:32N 39°07' W 010°07'1414.5
2016-Jun-22 08:33N 39°22' W 010°07'1514.5
2016-Jun-22 07:32N 39°36' W 010°08'1414.3
2016-Jun-22 06:32N 39°50' W 010°07'58716.2
2016-Jun-20 18:23N 49°02' W 005°25'9018.3
2016-Jun-20 13:29N 49°47' W 003°26'1718.6
2016-Jun-20 12:33N 49°56' W 003°03'1918.5
2016-Jun-20 11:33N 50°01' W 002°35'5317.4
2016-Jun-20 08:32N 49°49' W 001°16'1616.8
2016-Jun-20 07:33N 49°43' W 000°52'1817.6
2016-Jun-20 06:33N 49°36' W 000°27'1615.9
2016-Jun-20 05:34N 49°31' W 000°04'9 8.7
2016-Jun-20 04:31N 49°27' E 000°09'0 0.3
2016-Jun-20 03:31N 49°28' E 000°09'0 0.0
2016-Jun-20 02:31N 49°28' E 000°09'0 0.0
2016-Jun-20 01:31N 49°28' E 000°09'0 0.0
2016-Jun-20 00:31N 49°28' E 000°09'0 0.0
2016-Jun-19 23:34N 49°28' E 000°09'0 0.0
2016-Jun-19 22:31N 49°28' E 000°09'0 0.0
2016-Jun-19 21:31N 49°28' E 000°09'0 0.0
2016-Jun-19 20:31N 49°28' E 000°09'0 0.0
2016-Jun-19 19:31N 49°28' E 000°09'0 0.0
2016-Jun-19 18:31N 49°28' E 000°09'0 0.0
2016-Jun-19 17:31N 49°28' E 000°09'0 0.0
2016-Jun-19 16:31N 49°28' E 000°09'0 0.0
2016-Jun-19 15:31N 49°28' E 000°09'0 0.0
2016-Jun-19 14:34N 49°28' E 000°09'0 0.0
2016-Jun-19 13:31N 49°28' E 000°09'0 0.0
2016-Jun-19 12:33N 49°28' E 000°09'0 0.0
2016-Jun-19 11:34N 49°28' E 000°09'0 0.0
2016-Jun-19 10:31N 49°28' E 000°09'0 0.0
2016-Jun-19 09:34N 49°28' E 000°09'0 0.0
2016-Jun-19 08:33N 49°28' E 000°09'10 9.7
2016-Jun-19 07:33N 49°31' W 000°05'5 4.7
2016-Jun-19 06:31N 49°35' W 000°09'2 1.6
2016-Jun-19 05:31N 49°36' W 000°11'6 6.5
2016-Jun-19 04:33N 49°42' W 000°10'8 7.7
2016-Jun-19 03:33N 49°49' W 000°09'8 7.7
2016-Jun-19 02:33N 49°57' W 000°09'7 6.7
2016-Jun-19 01:34N 50°04' W 000°07'10 9.6
2016-Jun-19 00:33N 50°13' W 000°07'1110.5
2016-Jun-18 23:33N 50°24' W 000°05'1010.2
2016-Jun-18 22:33N 50°30' E 000°08'1211.5
2016-Jun-18 21:33N 50°34' E 000°25'1111.1
2016-Jun-18 20:33N 50°38' E 000°41'2210.9
2016-Jun-18 18:33N 50°53' E 001°07'1110.9
2016-Jun-18 17:33N 51°00' E 001°20'1111.2
2016-Jun-18 16:33N 51°07' E 001°34'1111.2
2016-Jun-18 15:33N 51°14' E 001°47'1111.2
2016-Jun-18 14:33N 51°23' E 001°58'9 9.4
2016-Jun-18 13:33N 51°21' E 002°12'1110.7
2016-Jun-18 12:33N 51°23' E 002°29'1111.1
2016-Jun-18 11:33N 51°24' E 002°47'1313.2
2016-Jun-18 10:33N 51°24' E 003°08'1414.1
2016-Jun-18 09:33N 51°25' E 003°30'8 7.6
2016-Jun-18 08:33N 51°25' E 003°43'1010.2
2016-Jun-18 07:33N 51°26' E 003°59'1111.0
2016-Jun-18 06:33N 51°21' E 004°15'2 1.6
2016-Jun-18 05:32N 51°21' E 004°17'2 1.9
2016-Jun-18 04:33N 51°20' E 004°19'0 0.1
2016-Jun-18 03:33N 51°19' E 004°20'0 0.0
2016-Jun-18 02:33N 51°19' E 004°20'0 0.0
2016-Jun-18 01:33N 51°19' E 004°20'0 0.0
2016-Jun-18 00:33N 51°19' E 004°20'0 0.0
2016-Jun-17 23:33N 51°19' E 004°20'0 0.0
2016-Jun-17 22:30N 51°19' E 004°20'0 0.0
2016-Jun-17 21:33N 51°19' E 004°20'0 0.0
2016-Jun-17 20:33N 51°19' E 004°20'0 0.0
2016-Jun-17 19:33N 51°19' E 004°20'0 0.0
2016-Jun-17 18:33N 51°19' E 004°20'0 0.0
2016-Jun-17 17:33N 51°19' E 004°20'0 0.0
2016-Jun-17 16:33N 51°19' E 004°20'0 0.0
2016-Jun-17 15:33N 51°19' E 004°20'0 0.0
2016-Jun-17 14:33N 51°19' E 004°20'0 0.0
2016-Jun-17 13:33N 51°19' E 004°20'0 0.0
2016-Jun-17 12:33N 51°19' E 004°20'0 0.0
2016-Jun-17 11:33N 51°19' E 004°20'0 0.0
2016-Jun-17 10:30N 51°19' E 004°20'0 0.0
2016-Jun-17 09:33N 51°19' E 004°20'0 0.0
2016-Jun-17 08:33N 51°19' E 004°20'0 0.0
2016-Jun-17 07:33N 51°19' E 004°20'0 0.0
2016-Jun-17 06:33N 51°19' E 004°20'0 0.0
2016-Jun-17 05:33N 51°19' E 004°20'0 0.0
2016-Jun-17 04:33N 51°19' E 004°20'0 0.0
2016-Jun-17 03:33N 51°19' E 004°20'0 0.0
2016-Jun-17 02:33N 51°19' E 004°20'0 0.0
2016-Jun-17 01:33N 51°19' E 004°20'0 0.1
2016-Jun-17 00:34N 51°19' E 004°19'2 1.8
2016-Jun-16 23:34N 51°21' E 004°17'0 0.0
2016-Jun-16 22:34N 51°21' E 004°17'5 5.3
2016-Jun-16 21:33N 51°23' E 004°10'9 9.4
2016-Jun-16 20:34N 51°22' E 003°55'1212.3
2016-Jun-16 19:33N 51°26' E 003°36'1413.9
2016-Jun-16 18:33N 51°24' E 003°14'9 8.7
2016-Jun-16 17:33N 51°29' E 003°02'1616.5
2016-Jun-16 16:33N 51°44' E 003°13'8 7.7
2016-Jun-16 15:30N 51°51' E 003°21'9 9.0
2016-Jun-16 14:33N 51°60' E 003°20'10 9.9
2016-Jun-16 13:32N 52°09' E 003°22'1313.5
2016-Jun-16 12:33N 52°23' E 003°26'1313.2
2016-Jun-16 11:33N 52°36' E 003°30'1313.0
2016-Jun-16 10:32N 52°46' E 003°43'1413.3
2016-Jun-16 09:29N 52°57' E 003°58'1313.6
2016-Jun-16 08:33N 53°05' E 004°14'1313.4
2016-Jun-16 07:33N 53°16' E 004°27'1513.1
2016-Jun-16 06:23N 53°30' E 004°39'1113.6
2016-Jun-16 05:33N 53°34' E 004°57'1413.7
2016-Jun-16 04:33N 53°38' E 005°19'1313.2
2016-Jun-16 03:33N 53°43' E 005°40'1313.2
2016-Jun-16 02:33N 53°47' E 006°01'1313.4
2016-Jun-16 01:33N 53°51' E 006°23'1313.3
2016-Jun-16 00:33N 53°54' E 006°44'1413.5
2016-Jun-15 23:33N 53°57' E 007°07'1413.8
2016-Jun-15 22:33N 54°00' E 007°30'1313.4
2016-Jun-15 21:34N 54°01' E 007°52'1313.0
2016-Jun-15 20:33N 54°00' E 008°14'1716.6
2016-Jun-15 19:33N 53°55' E 008°41'1313.5
2016-Jun-15 18:34N 53°52' E 009°03'1212.3
2016-Jun-15 17:34N 53°48' E 009°23'1312.9
2016-Jun-15 16:33N 53°37' E 009°34'1211.6
2016-Jun-15 15:33N 53°33' E 009°52'2 1.6
2016-Jun-15 14:33N 53°32' E 009°54'0 0.0
2016-Jun-15 13:33N 53°32' E 009°54'0 0.0
2016-Jun-15 12:33N 53°32' E 009°54'0 0.0
2016-Jun-15 11:33N 53°32' E 009°54'0 0.0
2016-Jun-15 10:33N 53°32' E 009°54'0 0.0
2016-Jun-15 09:33N 53°32' E 009°54'0 0.0
2016-Jun-15 08:33N 53°32' E 009°54'0 0.0
2016-Jun-15 07:33N 53°32' E 009°54'0 0.0
2016-Jun-15 06:33N 53°32' E 009°54'0 0.0
2016-Jun-15 05:33N 53°32' E 009°54'0 0.0
2016-Jun-15 04:33N 53°32' E 009°54'0 0.0
2016-Jun-15 03:33N 53°32' E 009°54'0 0.0
2016-Jun-15 02:33N 53°32' E 009°54'0 0.0
2016-Jun-15 01:33N 53°32' E 009°54'  
Track history (hours):
 
Tides and Currents Weather Stations Pressure Air Temp Water Temp Dewpoint Dewpoint Depression Visibility Wind Speed Wind Dir Waves Ship Positions

MSC Maria Saveria

Last reported at 2016-Jun-25 01:33 UTC. Time now 2016-Jun-25 01:50 UTC.
Position N 36°23' W 002°08'.

Length 366 m; draft 13.5 m.

Type: Ship (hazmat cat A). MMSI: 372400000.

Date/timePositionNaut miles runAvg speedWind from/ knotsBaromVisibWave heightAir tempDewpointWater temp
2016-Jun-25 01:33N 36°23' W 002°08'2017.0
2016-Jun-25 00:23N 36°19' W 002°32'14017.9
2016-Jun-24 16:33N 35°57' W 005°23'11115.9
2016-Jun-24 09:33N 36°12' W 007°39'1816.4
2016-Jun-24 08:27N 36°17' W 008°01'2116.7
2016-Jun-24 07:11N 36°22' W 008°26'4616.2
2016-Jun-24 04:21N 36°37' W 009°21'1315.9
2016-Jun-24 03:33N 36°47' W 009°31'2015.0
2016-Jun-24 02:12N 37°07' W 009°28'1717.5
2016-Jun-24 01:13N 37°22' W 009°17'1117.2
2016-Jun-24 00:33N 37°31' W 009°09'1717.0
2016-Jun-23 23:33N 37°45' W 008°56'1211.6
2016-Jun-23 22:31N 37°56' W 008°51'0 0.0
2016-Jun-23 21:31N 37°56' W 008°51'0 0.0
2016-Jun-23 20:28N 37°56' W 008°51'0 0.0
2016-Jun-23 19:31N 37°56' W 008°51'0 0.0
2016-Jun-23 18:31N 37°56' W 008°51'0 0.0
2016-Jun-23 17:31N 37°56' W 008°51'0 0.0
2016-Jun-23 16:31N 37°56' W 008°51'0 0.0
2016-Jun-23 15:31N 37°56' W 008°51'0 0.0
2016-Jun-23 14:31N 37°56' W 008°51'0 0.0
2016-Jun-23 13:31N 37°56' W 008°51'0 0.0
2016-Jun-23 12:31N 37°56' W 008°51'0 0.0
2016-Jun-23 11:28N 37°56' W 008°51'0 0.0
2016-Jun-23 10:31N 37°56' W 008°51'0 0.0
2016-Jun-23 09:31N 37°56' W 008°51'0 0.0
2016-Jun-23 08:31N 37°56' W 008°51'0 0.0
2016-Jun-23 07:31N 37°56' W 008°51'0 0.0
2016-Jun-23 05:31N 37°56' W 008°51'0 0.0
2016-Jun-23 04:31N 37°56' W 008°51'0 0.0
2016-Jun-23 03:31N 37°56' W 008°51'0 0.0
2016-Jun-23 02:31N 37°56' W 008°51'1 0.7
2016-Jun-23 01:33N 37°55' W 008°50'8 8.2
2016-Jun-23 00:33N 37°59' W 008°60'2 1.6
2016-Jun-22 23:33N 38°00' W 009°01'1 1.3
2016-Jun-22 22:33N 38°02' W 009°02'1 1.3
2016-Jun-22 21:33N 38°03' W 009°02'1 1.3
2016-Jun-22 20:33N 38°04' W 009°02'1 1.2
2016-Jun-22 19:34N 38°04' W 009°04'7 6.9
2016-Jun-22 18:33N 37°58' W 008°60'1 1.1
2016-Jun-22 17:33N 37°59' W 009°00'1 1.3
2016-Jun-22 16:30N 37°60' W 009°02'6 5.9
2016-Jun-22 15:33N 38°02' W 009°08'1414.4
2016-Jun-22 14:34N 38°11' W 009°22'1414.2
2016-Jun-22 13:33N 38°18' W 009°38'1514.6
2016-Jun-22 12:33N 38°28' W 009°52'1414.5
2016-Jun-22 11:33N 38°38' W 010°05'1414.4
2016-Jun-22 10:33N 38°52' W 010°07'1514.7
2016-Jun-22 09:32N 39°07' W 010°07'1414.5
2016-Jun-22 08:33N 39°22' W 010°07'1514.5
2016-Jun-22 07:32N 39°36' W 010°08'1414.3
2016-Jun-22 06:32N 39°50' W 010°07'58716.2
2016-Jun-20 18:23N 49°02' W 005°25'9018.3
2016-Jun-20 13:29N 49°47' W 003°26'1718.6
2016-Jun-20 12:33N 49°56' W 003°03'1918.5
2016-Jun-20 11:33N 50°01' W 002°35'5317.4
2016-Jun-20 08:32N 49°49' W 001°16'1616.8
2016-Jun-20 07:33N 49°43' W 000°52'1817.6
2016-Jun-20 06:33N 49°36' W 000°27'1615.9
2016-Jun-20 05:34N 49°31' W 000°04'9 8.7
2016-Jun-20 04:31N 49°27' E 000°09'0 0.3
2016-Jun-20 03:31N 49°28' E 000°09'0 0.0
2016-Jun-20 02:31N 49°28' E 000°09'0 0.0
2016-Jun-20 01:31N 49°28' E 000°09'0 0.0
2016-Jun-20 00:31N 49°28' E 000°09'0 0.0
2016-Jun-19 23:34N 49°28' E 000°09'0 0.0
2016-Jun-19 22:31N 49°28' E 000°09'0 0.0
2016-Jun-19 21:31N 49°28' E 000°09'0 0.0
2016-Jun-19 20:31N 49°28' E 000°09'0 0.0
2016-Jun-19 19:31N 49°28' E 000°09'0 0.0
2016-Jun-19 18:31N 49°28' E 000°09'0 0.0
2016-Jun-19 17:31N 49°28' E 000°09'0 0.0
2016-Jun-19 16:31N 49°28' E 000°09'0 0.0
2016-Jun-19 15:31N 49°28' E 000°09'0 0.0
2016-Jun-19 14:34N 49°28' E 000°09'0 0.0
2016-Jun-19 13:31N 49°28' E 000°09'0 0.0
2016-Jun-19 12:33N 49°28' E 000°09'0 0.0
2016-Jun-19 11:34N 49°28' E 000°09'0 0.0
2016-Jun-19 10:31N 49°28' E 000°09'0 0.0
2016-Jun-19 09:34N 49°28' E 000°09'0 0.0
2016-Jun-19 08:33N 49°28' E 000°09'10 9.7
2016-Jun-19 07:33N 49°31' W 000°05'5 4.7
2016-Jun-19 06:31N 49°35' W 000°09'2 1.6
2016-Jun-19 05:31N 49°36' W 000°11'6 6.5
2016-Jun-19 04:33N 49°42' W 000°10'8 7.7
2016-Jun-19 03:33N 49°49' W 000°09'8 7.7
2016-Jun-19 02:33N 49°57' W 000°09'7 6.7
2016-Jun-19 01:34N 50°04' W 000°07'10 9.6
2016-Jun-19 00:33N 50°13' W 000°07'1110.5
2016-Jun-18 23:33N 50°24' W 000°05'1010.2
2016-Jun-18 22:33N 50°30' E 000°08'1211.5
2016-Jun-18 21:33N 50°34' E 000°25'1111.1
2016-Jun-18 20:33N 50°38' E 000°41'2210.9
2016-Jun-18 18:33N 50°53' E 001°07'1110.9
2016-Jun-18 17:33N 51°00' E 001°20'1111.2
2016-Jun-18 16:33N 51°07' E 001°34'1111.2
2016-Jun-18 15:33N 51°14' E 001°47'1111.2
2016-Jun-18 14:33N 51°23' E 001°58'9 9.4
2016-Jun-18 13:33N 51°21' E 002°12'1110.7
2016-Jun-18 12:33N 51°23' E 002°29'1111.1
2016-Jun-18 11:33N 51°24' E 002°47'1313.2
2016-Jun-18 10:33N 51°24' E 003°08'1414.1
2016-Jun-18 09:33N 51°25' E 003°30'8 7.6
2016-Jun-18 08:33N 51°25' E 003°43'1010.2
2016-Jun-18 07:33N 51°26' E 003°59'1111.0
2016-Jun-18 06:33N 51°21' E 004°15'2 1.6
2016-Jun-18 05:32N 51°21' E 004°17'2 1.9
2016-Jun-18 04:33N 51°20' E 004°19'0 0.1
2016-Jun-18 03:33N 51°19' E 004°20'0 0.0
2016-Jun-18 02:33N 51°19' E 004°20'0 0.0
2016-Jun-18 01:33N 51°19' E 004°20'0 0.0
2016-Jun-18 00:33N 51°19' E 004°20'0 0.0
2016-Jun-17 23:33N 51°19' E 004°20'0 0.0
2016-Jun-17 22:30N 51°19' E 004°20'0 0.0
2016-Jun-17 21:33N 51°19' E 004°20'0 0.0
2016-Jun-17 20:33N 51°19' E 004°20'0 0.0
2016-Jun-17 19:33N 51°19' E 004°20'0 0.0
2016-Jun-17 18:33N 51°19' E 004°20'0 0.0
2016-Jun-17 17:33N 51°19' E 004°20'0 0.0
2016-Jun-17 16:33N 51°19' E 004°20'0 0.0
2016-Jun-17 15:33N 51°19' E 004°20'0 0.0
2016-Jun-17 14:33N 51°19' E 004°20'0 0.0
2016-Jun-17 13:33N 51°19' E 004°20'0 0.0
2016-Jun-17 12:33N 51°19' E 004°20'0 0.0
2016-Jun-17 11:33N 51°19' E 004°20'0 0.0
2016-Jun-17 10:30N 51°19' E 004°20'0 0.0
2016-Jun-17 09:33N 51°19' E 004°20'0 0.0
2016-Jun-17 08:33N 51°19' E 004°20'0 0.0
2016-Jun-17 07:33N 51°19' E 004°20'0 0.0
2016-Jun-17 06:33N 51°19' E 004°20'0 0.0
2016-Jun-17 05:33N 51°19' E 004°20'0 0.0
2016-Jun-17 04:33N 51°19' E 004°20'0 0.0
2016-Jun-17 03:33N 51°19' E 004°20'0 0.0
2016-Jun-17 02:33N 51°19' E 004°20'0 0.0
2016-Jun-17 01:33N 51°19' E 004°20'0 0.1
2016-Jun-17 00:34N 51°19' E 004°19'2 1.8
2016-Jun-16 23:34N 51°21' E 004°17'0 0.0
2016-Jun-16 22:34N 51°21' E 004°17'5 5.3
2016-Jun-16 21:33N 51°23' E 004°10'9 9.4
2016-Jun-16 20:34N 51°22' E 003°55'1212.3
2016-Jun-16 19:33N 51°26' E 003°36'1413.9
2016-Jun-16 18:33N 51°24' E 003°14'9 8.7
2016-Jun-16 17:33N 51°29' E 003°02'1616.5
2016-Jun-16 16:33N 51°44' E 003°13'8 7.7
2016-Jun-16 15:30N 51°51' E 003°21'9 9.0
2016-Jun-16 14:33N 51°60' E 003°20'10 9.9
2016-Jun-16 13:32N 52°09' E 003°22'1313.5
2016-Jun-16 12:33N 52°23' E 003°26'1313.2
2016-Jun-16 11:33N 52°36' E 003°30'1313.0
2016-Jun-16 10:32N 52°46' E 003°43'1413.3
2016-Jun-16 09:29N 52°57' E 003°58'1313.6
2016-Jun-16 08:33N 53°05' E 004°14'1313.4
2016-Jun-16 07:33N 53°16' E 004°27'1513.1
2016-Jun-16 06:23N 53°30' E 004°39'1113.6
2016-Jun-16 05:33N 53°34' E 004°57'1413.7
2016-Jun-16 04:33N 53°38' E 005°19'1313.2
2016-Jun-16 03:33N 53°43' E 005°40'1313.2
2016-Jun-16 02:33N 53°47' E 006°01'1313.4
2016-Jun-16 01:33N 53°51' E 006°23'1313.3
2016-Jun-16 00:33N 53°54' E 006°44'1413.5
2016-Jun-15 23:33N 53°57' E 007°07'1413.8
2016-Jun-15 22:33N 54°00' E 007°30'1313.4
2016-Jun-15 21:34N 54°01' E 007°52'1313.0
2016-Jun-15 20:33N 54°00' E 008°14'1716.6
2016-Jun-15 19:33N 53°55' E 008°41'1313.5
2016-Jun-15 18:34N 53°52' E 009°03'1212.3
2016-Jun-15 17:34N 53°48' E 009°23'1312.9
2016-Jun-15 16:33N 53°37' E 009°34'1211.6
2016-Jun-15 15:33N 53°33' E 009°52'2 1.6
2016-Jun-15 14:33N 53°32' E 009°54'0 0.0
2016-Jun-15 13:33N 53°32' E 009°54'0 0.0
2016-Jun-15 12:33N 53°32' E 009°54'0 0.0
2016-Jun-15 11:33N 53°32' E 009°54'0 0.0
2016-Jun-15 10:33N 53°32' E 009°54'0 0.0
2016-Jun-15 09:33N 53°32' E 009°54'0 0.0
2016-Jun-15 08:33N 53°32' E 009°54'0 0.0
2016-Jun-15 07:33N 53°32' E 009°54'0 0.0
2016-Jun-15 06:33N 53°32' E 009°54'0 0.0
2016-Jun-15 05:33N 53°32' E 009°54'0 0.0
2016-Jun-15 04:33N 53°32' E 009°54'0 0.0
2016-Jun-15 03:33N 53°32' E 009°54'0 0.0
2016-Jun-15 02:33N 53°32' E 009°54'0 0.0
2016-Jun-15 01:33N 53°32' E 009°54'  

Dump ship's entire track history